Time;durP1;ratioP1;P1;durP2;ratioP2;P2;SDS_P1;SDS_P2;PMS_P1;PMS_P2;Temp;Humidity;BMP_temperature;BMP_pressure;BME280_temperature;BME280_humidity;BME280_pressure;Samples;Min_cycle;Max_cycle;Signal;HPM_P1;HPM_P2
2023/06/29 00:02:03;;;;;;;17.60;14.10;;;;;;;14.75;83.00;99734.25;103118;1254;138126;-75
2023/06/29 00:04:32;;;;;;;16.00;13.00;;;;;;;14.75;83.03;99732.73;103271;1254;96467;-75
2023/06/29 00:07:01;;;;;;;14.60;12.50;;;;;;;14.73;82.94;99732.69;103106;1254;138046;-75
2023/06/29 00:09:28;;;;;;;13.50;12.00;;;;;;;14.72;82.98;99728.68;103238;1254;95236;-74
2023/06/29 00:11:55;;;;;;;13.80;12.40;;;;;;;14.71;82.93;99729.80;103082;1254;138852;-75
2023/06/29 00:14:23;;;;;;;13.50;11.70;;;;;;;14.70;82.95;99731.23;103187;1254;107554;-74
2023/06/29 00:16:50;;;;;;;15.20;12.10;;;;;;;14.70;83.08;99730.54;103187;1257;96512;-75
2023/06/29 00:19:20;;;;;;;13.60;11.40;;;;;;;14.69;83.06;99728.17;103063;1254;138193;-75
2023/06/29 00:21:48;;;;;;;15.20;11.30;;;;;;;14.67;82.97;99730.22;103223;1258;96429;-75
2023/06/29 00:24:15;;;;;;;11.60;10.40;;;;;;;14.66;82.90;99735.33;103107;1257;138899;-76
2023/06/29 00:26:45;;;;;;;14.00;10.70;;;;;;;14.65;82.99;99736.64;103161;1254;106686;-76
2023/06/29 00:29:21;;;;;;;13.90;11.70;;;;;;;14.64;83.07;99739.80;103232;1257;96987;-73
2023/06/29 00:31:49;;;;;;;14.60;12.40;;;;;;;14.63;82.95;99742.00;103002;1260;138152;-74
2023/06/29 00:34:17;;;;;;;13.20;11.80;;;;;;;14.60;82.95;99740.25;103209;1254;96895;-74
2023/06/29 00:36:44;;;;;;;15.50;12.60;;;;;;;14.59;82.96;99740.80;103054;1260;138132;-76
2023/06/29 00:39:12;;;;;;;14.30;11.60;;;;;;;14.58;82.89;99743.52;103124;1254;107242;-75
2023/06/29 00:41:39;;;;;;;13.20;11.80;;;;;;;14.55;82.88;99738.60;103288;1257;96989;-76
2023/06/29 00:44:06;;;;;;;14.50;11.60;;;;;;;14.53;82.93;99736.77;103008;1254;138495;-75
2023/06/29 00:46:34;;;;;;;12.00;10.40;;;;;;;14.50;82.84;99733.60;103168;1254;96368;-76
2023/06/29 00:49:01;;;;;;;11.80;10.50;;;;;;;14.49;83.05;99734.18;103130;1254;138897;-76
2023/06/29 00:51:31;;;;;;;12.50;11.20;;;;;;;14.48;82.93;99733.52;103220;1254;106186;-75
2023/06/29 00:53:59;;;;;;;13.50;10.30;;;;;;;14.46;82.83;99729.60;103114;1258;138462;-75
2023/06/29 00:56:27;;;;;;;11.00;9.80;;;;;;;14.46;82.90;99728.25;103082;1254;108294;-76
2023/06/29 00:58:54;;;;;;;12.90;10.80;;;;;;;14.45;82.95;99722.72;103206;1257;96454;-75
2023/06/29 01:01:24;;;;;;;11.00;9.50;;;;;;;14.44;83.03;99720.83;103072;1258;138125;-75
2023/06/29 01:03:51;;;;;;;12.20;10.00;;;;;;;14.43;82.97;99723.67;103213;1254;108043;-75
2023/06/29 01:06:24;;;;;;;11.70;10.50;;;;;;;14.44;82.90;99721.73;103074;1257;138494;-75
2023/06/29 01:08:54;;;;;;;12.80;10.00;;;;;;;14.42;82.81;99722.33;103202;1260;107970;-75
2023/06/29 01:11:22;;;;;;;11.20;9.90;;;;;;;14.41;82.81;99721.16;103183;1260;96429;-76
2023/06/29 01:13:52;;;;;;;11.80;10.00;;;;;;;14.40;82.99;99725.06;103115;1255;138010;-75
2023/06/29 01:16:21;;;;;;;17.70;10.50;;;;;;;14.38;82.88;99718.88;103112;1254;107597;-76
2023/06/29 01:18:49;;;;;;;11.50;10.20;;;;;;;14.36;82.90;99720.19;103092;1254;140081;-74
2023/06/29 01:21:18;;;;;;;11.80;10.60;;;;;;;14.36;83.00;99720.58;103132;1254;108925;-74
2023/06/29 01:23:47;;;;;;;11.60;10.40;;;;;;;14.35;83.11;99721.13;103189;1254;96336;-74
2023/06/29 01:26:15;;;;;;;13.30;10.70;;;;;;;14.33;83.14;99720.19;103246;1260;109849;-74
2023/06/29 01:28:42;;;;;;;12.90;10.30;;;;;;;14.30;83.01;99713.71;103185;1254;107563;-74
2023/06/29 01:31:11;;;;;;;12.20;10.60;;;;;;;14.29;83.24;99714.14;103062;1258;138568;-74
2023/06/29 01:33:39;;;;;;;11.90;10.60;;;;;;;14.27;83.11;99717.77;103283;1254;107199;-73
2023/06/29 01:36:18;;;;;;;11.80;10.50;;;;;;;14.25;83.22;99714.53;103133;1254;138487;-73
2023/06/29 01:38:50;;;;;;;12.50;11.00;;;;;;;14.24;83.28;99711.30;103236;1258;109855;-76
2023/06/29 01:41:19;;;;;;;13.90;11.20;;;;;;;14.20;83.27;99710.08;103367;1254;107020;-73
2023/06/29 01:43:47;;;;;;;11.70;10.30;;;;;;;14.18;83.28;99712.99;103128;1257;138795;-75
2023/06/29 01:46:15;;;;;;;13.70;10.70;;;;;;;14.15;83.47;99717.00;103159;1254;108916;-75
2023/06/29 01:48:44;;;;;;;12.50;10.40;;;;;;;14.13;83.46;99713.80;103143;1254;138367;-75
2023/06/29 01:51:13;;;;;;;11.40;10.30;;;;;;;14.10;83.56;99712.92;103205;1254;109564;-75
2023/06/29 01:53:40;;;;;;;11.50;10.30;;;;;;;14.09;83.67;99706.52;103226;1257;107274;-75
2023/06/29 01:56:07;;;;;;;15.70;10.40;;;;;;;14.06;83.75;99703.56;103131;1254;138097;-73
2023/06/29 01:58:35;;;;;;;12.20;11.10;;;;;;;14.05;83.88;99704.30;103198;1254;107809;-73
2023/06/29 02:01:04;;;;;;;14.90;10.90;;;;;;;14.02;83.97;99708.67;103053;1254;138451;-73
2023/06/29 02:03:35;;;;;;;13.30;10.80;;;;;;;13.99;84.00;99712.67;103205;1254;110474;-73
2023/06/29 02:06:06;;;;;;;12.60;11.20;;;;;;;13.97;84.18;99710.17;103040;1254;138398;-73
2023/06/29 02:08:33;;;;;;;13.70;11.30;;;;;;;13.94;84.33;99711.19;103233;1257;96411;-73
2023/06/29 02:11:00;;;;;;;13.30;11.30;;;;;;;13.93;84.37;99712.14;103245;1254;107995;-74
2023/06/29 02:13:27;;;;;;;14.30;11.50;;;;;;;13.92;84.46;99716.01;103110;1254;138366;-74
2023/06/29 02:15:55;;;;;;;13.60;12.10;;;;;;;13.90;84.32;99715.94;103126;1254;109529;-73
2023/06/29 02:18:22;;;;;;;17.40;11.80;;;;;;;13.86;84.38;99718.23;103084;1257;138680;-73
2023/06/29 02:20:49;;;;;;;16.30;13.80;;;;;;;13.83;84.43;99723.64;103174;1257;96967;-73
2023/06/29 02:23:17;;;;;;;17.90;13.00;;;;;;;13.82;84.53;99728.09;103227;1254;108076;-73
2023/06/29 02:25:44;;;;;;;17.20;12.90;;;;;;;13.80;84.74;99733.24;103234;1254;138323;-73
2023/06/29 02:28:11;;;;;;;15.10;13.30;;;;;;;13.78;84.86;99735.42;103206;1254;110187;-73
2023/06/29 02:30:38;;;;;;;21.40;14.50;;;;;;;13.76;84.84;99737.48;103134;1259;139220;-74
2023/06/29 02:33:06;;;;;;;18.10;13.80;;;;;;;13.75;85.03;99736.49;103090;1257;96907;-73
2023/06/29 02:35:36;;;;;;;16.00;13.20;;;;;;;13.74;85.00;99739.51;103252;1254;108009;-74
2023/06/29 02:38:03;;;;;;;14.20;12.70;;;;;;;13.73;84.95;99741.65;103153;1254;139640;-73
2023/06/29 02:40:30;;;;;;;13.70;12.30;;;;;;;13.71;84.85;99741.61;103195;1259;109537;-74
2023/06/29 02:42:58;;;;;;;15.50;12.40;;;;;;;13.70;84.99;99746.21;103087;1255;138256;-74
2023/06/29 02:45:25;;;;;;;17.20;13.00;;;;;;;13.70;85.10;99749.19;103308;1254;96983;-74
2023/06/29 02:47:53;;;;;;;14.70;13.10;;;;;;;13.68;84.87;99748.22;103143;1254;138314;-74
2023/06/29 02:50:23;;;;;;;17.90;13.10;;;;;;;13.68;85.02;99747.90;103226;1254;96458;-74
2023/06/29 02:52:53;;;;;;;14.40;12.10;;;;;;;13.68;84.93;99757.50;103222;1258;109176;-74
2023/06/29 02:55:22;;;;;;;15.80;13.00;;;;;;;13.68;85.04;99752.95;103056;1254;138427;-74
2023/06/29 02:57:49;;;;;;;14.40;12.30;;;;;;;13.69;85.08;99756.74;103241;1254;96559;-73
2023/06/29 03:00:18;;;;;;;13.80;12.40;;;;;;;13.71;85.03;99756.45;103108;1254;138751;-74
2023/06/29 03:02:45;;;;;;;14.30;12.40;;;;;;;13.71;84.99;99755.90;103172;1254;96475;-73
2023/06/29 03:05:25;;;;;;;13.90;11.80;;;;;;;13.71;85.03;99758.55;103272;1257;110307;-73
2023/06/29 03:07:54;;;;;;;12.70;11.30;;;;;;;13.71;85.03;99766.60;103157;1258;138565;-73
2023/06/29 03:10:22;;;;;;;14.00;11.40;;;;;;;13.70;84.95;99771.16;103288;1254;96359;-73
2023/06/29 03:12:49;;;;;;;13.30;11.70;;;;;;;13.72;85.03;99771.45;103085;1258;138326;-73
2023/06/29 03:15:17;;;;;;;14.70;11.80;;;;;;;13.71;85.05;99766.77;103296;1254;96897;-73
2023/06/29 03:17:55;;;;;;;15.20;11.80;;;;;;;13.75;85.09;99769.35;103221;1254;138453;-73
2023/06/29 03:20:22;;;;;;;14.00;12.00;;;;;;;13.78;85.01;99762.14;103255;1258;107930;-74
2023/06/29 03:22:53;;;;;;;13.10;10.70;;;;;;;13.82;84.98;99763.70;103306;1254;96369;-73
2023/06/29 03:25:22;;;;;;;12.60;11.10;;;;;;;13.86;84.85;99759.30;103159;1257;138377;-74
2023/06/29 03:27:49;;;;;;;13.80;11.60;;;;;;;13.91;84.82;99758.52;103248;1257;96460;-74
2023/06/29 03:30:17;;;;;;;15.10;11.10;;;;;;;13.96;84.82;99761.60;103129;1257;138507;-76
2023/06/29 03:32:45;;;;;;;14.70;11.10;;;;;;;14.00;84.65;99764.84;103229;1254;107641;-74
2023/06/29 03:35:12;;;;;;;13.40;10.20;;;;;;;14.05;84.50;99765.33;103254;1257;98259;-74
2023/06/29 03:37:40;;;;;;;12.10;10.50;;;;;;;14.08;84.44;99768.43;103216;1254;138372;-74
2023/06/29 03:40:09;;;;;;;13.00;9.80;;;;;;;14.12;84.29;99769.45;103282;1254;96593;-73
2023/06/29 03:42:37;;;;;;;12.10;9.90;;;;;;;14.15;84.15;99769.61;103276;1254;138222;-74
2023/06/29 03:45:04;;;;;;;11.90;9.90;;;;;;;14.21;84.27;99774.38;103233;1255;108120;-73
2023/06/29 03:47:31;;;;;;;12.30;10.50;;;;;;;14.27;84.01;99779.80;103183;1254;96460;-74
2023/06/29 03:49:58;;;;;;;15.00;9.60;;;;;;;14.31;83.77;99779.40;103165;1254;138604;-73
2023/06/29 03:52:26;;;;;;;18.30;10.00;;;;;;;14.36;83.78;99788.25;103278;1254;96446;-74
2023/06/29 03:54:53;;;;;;;12.00;9.60;;;;;;;14.41;83.75;99786.58;103181;1254;138253;-74
2023/06/29 03:57:20;;;;;;;13.60;10.00;;;;;;;14.51;83.54;99787.63;103253;1254;107861;-74
2023/06/29 03:59:47;;;;;;;12.20;10.00;;;;;;;14.60;83.44;99786.77;103336;1254;97104;-74
2023/06/29 04:02:17;;;;;;;12.10;9.70;;;;;;;14.70;83.19;99788.64;103148;1254;107972;-73
2023/06/29 04:04:45;;;;;;;13.80;9.70;;;;;;;14.75;82.88;99788.36;103235;1254;96340;-73
2023/06/29 04:07:24;;;;;;;15.00;9.40;;;;;;;14.81;82.55;99787.32;103117;1255;138225;-74
2023/06/29 04:09:51;;;;;;;11.20;9.30;;;;;;;14.85;82.49;99788.66;103181;1254;106843;-74
2023/06/29 04:12:18;;;;;;;20.00;9.80;;;;;;;14.91;82.37;99789.00;103087;1255;138498;-73
2023/06/29 04:14:45;;;;;;;12.60;9.60;;;;;;;15.03;82.35;99797.80;103237;1254;107673;-73
2023/06/29 04:17:13;;;;;;;10.40;8.60;;;;;;;15.14;82.18;99791.05;103206;1254;96455;-74
2023/06/29 04:19:40;;;;;;;9.70;8.70;;;;;;;15.24;82.02;99795.02;103079;1254;138195;-74
2023/06/29 04:22:08;;;;;;;13.90;8.90;;;;;;;15.32;81.87;99795.23;103204;1257;107337;-74
2023/06/29 04:24:35;;;;;;;13.20;8.60;;;;;;;15.38;81.76;99799.04;103054;1254;138422;-74
2023/06/29 04:27:02;;;;;;;13.60;9.00;;;;;;;15.42;81.56;99798.80;103267;1254;108925;-75
2023/06/29 04:29:29;;;;;;;9.20;8.00;;;;;;;15.43;81.31;99798.56;103224;1257;96589;-76
2023/06/29 04:31:57;;;;;;;12.10;8.50;;;;;;;15.45;81.32;99796.21;103141;1254;138670;-72
2023/06/29 04:34:24;;;;;;;11.40;7.60;;;;;;;15.48;81.21;99801.80;103138;1254;107695;-72
2023/06/29 04:36:56;;;;;;;11.00;7.80;;;;;;;15.54;81.44;99803.92;103057;1257;138248;-74
2023/06/29 04:39:23;;;;;;;12.30;8.90;;;;;;;15.62;81.40;99802.40;103159;1257;109683;-77
2023/06/29 04:42:01;;;;;;;12.20;8.80;;;;;;;15.69;81.08;99802.33;103164;1254;96455;-73
2023/06/29 04:44:31;;;;;;;12.20;7.50;;;;;;;15.76;80.88;99805.59;103136;1255;111250;-76
2023/06/29 04:47:01;;;;;;;13.30;7.80;;;;;;;15.82;80.74;99803.84;103061;1260;108549;-77
2023/06/29 04:49:31;;;;;;;9.60;7.60;;;;;;;15.90;80.54;99808.78;103133;1254;137541;-77
2023/06/29 04:51:59;;;;;;;10.70;7.60;;;;;;;15.96;80.30;99810.48;103168;1256;107839;-75
2023/06/29 04:54:27;;;;;;;13.60;6.80;;;;;;;16.02;80.14;99807.70;103121;1257;138620;-74
2023/06/29 04:56:54;;;;;;;10.40;7.40;;;;;;;16.09;80.05;99806.52;103562;1257;109881;-73
2023/06/29 04:59:24;;;;;;;9.90;6.90;;;;;;;16.13;79.66;99810.12;103243;1257;108918;-72
2023/06/29 05:01:52;;;;;;;8.10;7.30;;;;;;;16.18;79.40;99809.13;103161;1254;139135;-82
2023/06/29 05:04:19;;;;;;;11.30;7.60;;;;;;;16.21;79.04;99808.45;103150;1254;106602;-74
2023/06/29 05:06:46;;;;;;;8.60;7.00;;;;;;;16.23;78.93;99811.78;103021;1257;138240;-69
2023/06/29 05:09:15;;;;;;;9.30;7.70;;;;;;;16.27;79.01;99813.63;103164;1257;109706;-78
2023/06/29 05:11:42;;;;;;;10.20;7.90;;;;;;;16.30;78.61;99814.15;103104;1254;108447;-77
2023/06/29 05:14:10;;;;;;;13.10;8.80;;;;;;;16.28;78.62;99812.16;103077;1254;138134;-73
2023/06/29 05:16:37;;;;;;;14.00;9.40;;;;;;;16.27;78.61;99813.83;103197;1254;106576;-72
2023/06/29 05:19:06;;;;;;;15.20;9.20;;;;;;;16.26;78.59;99810.05;103108;1254;139331;-74
2023/06/29 05:21:34;;;;;;;12.00;9.10;;;;;;;16.24;78.58;99807.49;103164;1257;109406;-75
2023/06/29 05:24:01;;;;;;;11.30;9.40;;;;;;;16.24;78.75;99811.02;103030;1256;140182;-75
2023/06/29 05:26:28;;;;;;;13.20;10.10;;;;;;;16.26;78.66;99809.85;103241;1255;96792;-75
2023/06/29 05:29:01;;;;;;;11.40;10.00;;;;;;;16.28;78.87;99809.67;103240;1254;107355;-73
2023/06/29 05:31:36;;;;;;;20.40;11.60;;;;;;;16.33;78.86;99812.91;103081;1254;138762;-72
2023/06/29 05:34:03;;;;;;;15.60;10.30;;;;;;;16.39;78.77;99820.13;103208;1255;110908;-74
2023/06/29 05:36:31;;;;;;;15.00;11.10;;;;;;;16.40;78.68;99822.69;103080;1256;139649;-74
2023/06/29 05:38:58;;;;;;;13.50;11.00;;;;;;;16.40;78.66;99822.85;103214;1257;96702;-73
2023/06/29 05:41:25;;;;;;;15.30;10.80;;;;;;;16.42;78.69;99827.08;103209;1255;108707;-76
2023/06/29 05:43:52;;;;;;;14.30;11.50;;;;;;;16.45;78.62;99827.46;103155;1257;140059;-73
2023/06/29 05:46:19;;;;;;;13.80;11.00;;;;;;;16.48;78.63;99824.79;103264;1254;111671;-74
2023/06/29 05:48:47;;;;;;;14.50;11.50;;;;;;;16.54;78.50;99826.90;103175;1254;139369;-74
2023/06/29 05:51:14;;;;;;;17.60;11.50;;;;;;;16.57;78.25;99830.03;103308;1254;96893;-75
2023/06/29 05:53:41;;;;;;;14.10;11.50;;;;;;;16.58;78.10;99833.65;103272;1257;107833;-73
2023/06/29 05:56:08;;;;;;;13.40;10.70;;;;;;;16.61;78.00;99828.35;103217;1257;138300;-74
2023/06/29 05:58:36;;;;;;;13.40;10.10;;;;;;;16.67;77.91;99828.19;103381;1254;109132;-75
2023/06/29 06:01:04;;;;;;;14.40;10.30;;;;;;;16.77;77.87;99827.00;103203;1254;138653;-74
2023/06/29 06:03:33;;;;;;;23.00;12.00;;;;;;;16.84;77.63;99826.71;103197;1254;97416;-74
2023/06/29 06:06:00;;;;;;;15.00;9.90;;;;;;;16.92;77.55;99827.26;103080;1254;138563;-74
2023/06/29 06:08:28;;;;;;;15.80;10.20;;;;;;;17.03;77.25;99827.95;103301;1257;96428;-75
2023/06/29 06:10:55;;;;;;;14.10;10.30;;;;;;;17.15;77.00;99830.34;103275;1254;109798;-75
2023/06/29 06:13:22;;;;;;;13.70;9.70;;;;;;;17.26;76.56;99832.44;103011;1257;139283;-74
2023/06/29 06:15:49;;;;;;;14.90;9.80;;;;;;;17.39;76.42;99830.65;103020;1257;97043;-75
2023/06/29 06:18:16;;;;;;;13.80;9.60;;;;;;;17.52;76.03;99827.46;103000;1259;137480;-74
2023/06/29 06:20:43;;;;;;;13.10;9.80;;;;;;;17.73;75.55;99826.65;103208;1257;96458;-75
2023/06/29 06:23:11;;;;;;;11.70;8.90;;;;;;;17.93;74.97;99829.46;103279;1256;109412;-75
2023/06/29 06:25:39;;;;;;;11.20;9.30;;;;;;;18.10;74.69;99825.25;103094;1257;139009;-75
2023/06/29 06:28:06;;;;;;;15.00;9.50;;;;;;;18.46;74.31;99825.36;103274;1254;96349;-75
2023/06/29 06:30:33;;;;;;;11.30;8.90;;;;;;;19.96;74.10;99819.94;103140;1254;138619;-75
2023/06/29 06:33:01;;;;;;;13.70;8.90;;;;;;;21.78;69.97;99815.55;103279;1254;96453;-75
2023/06/29 06:35:29;;;;;;;13.70;9.00;;;;;;;22.25;66.95;99813.80;103273;1257;109814;-75
2023/06/29 06:37:56;;;;;;;14.20;9.60;;;;;;;22.33;65.46;99817.02;103132;1254;137648;-75
2023/06/29 06:40:23;;;;;;;15.40;9.10;;;;;;;22.35;64.81;99823.90;103176;1257;96553;-75
2023/06/29 06:42:50;;;;;;;12.80;8.90;;;;;;;22.23;63.89;99821.27;103172;1254;137777;-75
2023/06/29 06:45:17;;;;;;;10.50;8.40;;;;;;;22.15;63.80;99823.77;103163;1254;96727;-75
2023/06/29 06:47:44;;;;;;;22.50;9.00;;;;;;;22.29;63.59;99826.23;103279;1255;110005;-68
2023/06/29 06:50:12;;;;;;;13.40;7.90;;;;;;;22.96;63.30;99833.16;103263;1254;137581;-67
2023/06/29 06:52:40;;;;;;;12.50;7.50;;;;;;;23.84;61.50;99821.56;103514;1257;96430;-68
2023/06/29 06:55:09;;;;;;;12.20;6.80;;;;;;;24.82;60.82;99820.66;103228;1255;138403;-68
2023/06/29 06:57:36;;;;;;;9.60;7.60;;;;;;;26.63;58.55;99814.54;103349;1255;96416;-68
2023/06/29 07:00:05;;;;;;;7.00;6.10;;;;;;;28.49;55.24;99812.66;104236;1257;137826;-68
2023/06/29 07:02:32;;;;;;;10.20;6.40;;;;;;;30.21;52.37;99809.02;103269;1254;108778;-68
2023/06/29 07:05:00;;;;;;;7.90;6.10;;;;;;;31.68;49.13;99805.59;103388;1254;96457;-68
2023/06/29 07:07:27;;;;;;;8.00;5.70;;;;;;;32.10;46.76;99801.94;103699;1254;137381;-68
2023/06/29 07:09:55;;;;;;;6.30;5.60;;;;;;;31.97;46.17;99803.99;103358;1254;96460;-68
2023/06/29 07:12:22;;;;;;;7.40;5.70;;;;;;;31.48;44.87;99806.38;103454;1254;137559;-70
2023/06/29 07:14:50;;;;;;;9.00;5.80;;;;;;;30.66;44.61;99804.23;103078;1254;108846;-67
2023/06/29 07:17:17;;;;;;;7.70;5.50;;;;;;;29.91;45.00;99800.30;103147;1257;96514;-68
2023/06/29 07:19:45;;;;;;;6.80;5.20;;;;;;;29.47;45.29;99799.48;103103;1257;137584;-67
2023/06/29 07:22:15;;;;;;;8.70;5.40;;;;;;;30.05;45.36;99794.30;103126;1254;96521;-67
2023/06/29 07:24:45;;;;;;;6.40;5.10;;;;;;;31.32;44.59;99792.52;104485;1257;139232;-70
2023/06/29 07:27:12;;;;;;;6.60;4.70;;;;;;;32.51;42.80;99787.29;104598;1254;107364;-68
2023/06/29 07:29:42;;;;;;;6.00;4.80;;;;;;;33.45;41.20;99787.18;103849;1254;94602;-70
2023/06/29 07:32:10;;;;;;;9.60;4.80;;;;;;;34.50;40.19;99783.98;103245;1257;137136;-70
2023/06/29 07:34:38;;;;;;;7.40;4.50;;;;;;;35.60;38.99;99782.02;103437;1254;96332;-70
2023/06/29 07:37:05;;;;;;;6.40;4.60;;;;;;;36.50;37.12;99775.75;103187;1254;137218;-70
2023/06/29 07:39:33;;;;;;;7.50;4.10;;;;;;;37.12;35.95;99773.55;103453;1254;100273;-68
2023/06/29 07:42:00;;;;;;;5.20;3.50;;;;;;;37.63;34.84;99770.95;103132;1254;137774;-69
2023/06/29 07:44:27;;;;;;;4.60;3.60;;;;;;;38.06;33.91;99767.56;103220;1254;100092;-70
2023/06/29 07:46:55;;;;;;;4.20;3.40;;;;;;;38.50;33.24;99766.02;103244;1254;96545;-69
2023/06/29 07:49:22;;;;;;;5.70;3.20;;;;;;;39.06;32.59;99767.02;103083;1257;137568;-68
2023/06/29 07:51:50;;;;;;;4.10;3.20;;;;;;;39.37;31.46;99769.08;103216;1254;99967;-69
2023/06/29 07:54:18;;;;;;;6.10;3.40;;;;;;;39.63;31.21;99769.42;103214;1257;138532;-73
2023/06/29 07:56:45;;;;;;;4.80;3.30;;;;;;;40.01;30.65;99768.78;103472;1254;99486;-81
2023/06/29 07:59:15;;;;;;;5.50;3.10;;;;;;;40.21;30.00;99759.70;103234;1254;97333;-81
2023/06/29 08:01:42;;;;;;;3.80;3.20;;;;;;;40.34;29.83;99756.58;103137;1257;137405;-83
2023/06/29 08:04:09;;;;;;;4.10;2.90;;;;;;;40.46;29.58;99755.14;103182;1254;98802;-83
2023/06/29 08:06:41;;;;;;;5.50;3.00;;;;;;;40.65;28.87;99754.02;103159;1257;137238;-82
2023/06/29 08:09:18;;;;;;;6.50;2.90;;;;;;;40.51;27.99;99748.56;103262;1255;99019;-82
2023/06/29 08:11:46;;;;;;;4.30;2.80;;;;;;;40.20;27.64;99748.30;103217;1254;96446;-82
2023/06/29 08:14:14;;;;;;;4.70;2.90;;;;;;;40.11;27.82;99747.77;103233;1254;103190;-83
2023/06/29 08:16:41;;;;;;;4.00;3.10;;;;;;;40.26;27.45;99745.55;103295;1254;99299;-82
2023/06/29 08:19:08;;;;;;;5.70;2.80;;;;;;;40.30;27.37;99746.52;103130;1257;137412;-82
2023/06/29 08:21:35;;;;;;;5.00;3.10;;;;;;;40.34;27.29;99745.19;103262;1254;98823;-83
2023/06/29 08:24:02;;;;;;;5.80;2.60;;;;;;;40.41;27.06;99748.05;103126;1254;140865;-82
2023/06/29 08:26:30;;;;;;;6.70;2.90;;;;;;;40.48;27.05;99745.75;103282;1257;102004;-82
2023/06/29 08:28:57;;;;;;;3.50;2.70;;;;;;;40.42;26.96;99742.34;103096;1254;100304;-82
2023/06/29 08:31:24;;;;;;;3.50;2.90;;;;;;;40.47;26.78;99739.78;103227;1254;137489;-85
2023/06/29 08:33:51;;;;;;;3.40;2.80;;;;;;;40.53;26.48;99744.10;103250;1254;100100;-85
2023/06/29 08:36:19;;;;;;;6.20;2.70;;;;;;;40.42;26.21;99743.71;103118;1254;137940;-84
2023/06/29 08:38:48;;;;;;;6.60;2.90;;;;;;;40.22;26.16;99744.95;103323;1254;102543;-83
2023/06/29 08:41:16;;;;;;;3.00;2.70;;;;;;;40.02;25.99;99747.16;103240;1254;100284;-76
2023/06/29 08:43:44;;;;;;;5.40;2.70;;;;;;;39.69;25.99;99750.91;103254;1257;137736;-75
2023/06/29 08:46:12;;;;;;;4.10;2.70;;;;;;;39.58;26.70;99749.40;103176;1254;100344;-74
2023/06/29 08:48:42;;;;;;;5.30;3.10;;;;;;;39.72;26.44;99748.11;103170;1254;137453;-74
2023/06/29 08:51:11;;;;;;;6.90;2.90;;;;;;;39.30;26.18;99746.36;103259;1257;102376;-74
2023/06/29 08:53:40;;;;;;;3.90;3.00;;;;;;;38.56;26.30;99741.61;103249;1254;100253;-75
2023/06/29 08:56:08;;;;;;;6.80;3.40;;;;;;;38.24;26.58;99736.91;103040;1257;137290;-74
2023/06/29 08:58:36;;;;;;;3.20;2.80;;;;;;;38.04;27.01;99739.48;103179;1254;100373;-74
2023/06/29 09:01:04;;;;;;;5.90;3.20;;;;;;;37.91;26.52;99734.95;103083;1254;137539;-74
2023/06/29 09:03:32;;;;;;;7.70;3.50;;;;;;;37.32;26.73;99739.91;103210;1254;102449;-75
2023/06/29 09:05:59;;;;;;;3.90;3.30;;;;;;;37.05;27.08;99737.89;103065;1254;138030;-76
2023/06/29 09:08:26;;;;;;;4.70;2.80;;;;;;;36.81;27.22;99741.61;103130;1257;96943;-75
2023/06/29 09:10:55;;;;;;;6.80;3.70;;;;;;;36.55;27.59;99732.33;103135;1254;100227;-76
2023/06/29 09:13:25;;;;;;;7.20;3.60;;;;;;;36.58;27.90;99733.98;103163;1255;137493;-76
2023/06/29 09:16:00;;;;;;;5.40;3.30;;;;;;;36.71;27.67;99732.09;103109;1255;102450;-76
2023/06/29 09:18:28;;;;;;;6.00;3.80;;;;;;;36.86;27.79;99730.38;102952;1255;137882;-76
2023/06/29 09:20:57;;;;;;;6.20;3.50;;;;;;;37.00;27.40;99731.04;103142;1254;96810;-75
2023/06/29 09:23:25;;;;;;;8.20;3.00;;;;;;;36.71;26.70;99724.11;103173;1254;99158;-75
2023/06/29 09:25:56;;;;;;;4.80;3.20;;;;;;;36.33;27.04;99724.77;103102;1254;137251;-77
2023/06/29 09:28:25;;;;;;;6.30;3.70;;;;;;;36.33;27.50;99721.83;103177;1255;102653;-76
2023/06/29 09:30:52;;;;;;;6.70;3.40;;;;;;;35.98;27.06;99720.96;103007;1254;137614;-64
2023/06/29 09:33:21;;;;;;;5.30;3.90;;;;;;;35.67;27.51;99721.46;103249;1254;96461;-71
2023/06/29 09:35:51;;;;;;;5.80;3.10;;;;;;;35.74;27.92;99719.22;103252;1257;108534;-72
2023/06/29 09:38:18;;;;;;;11.20;3.20;;;;;;;35.90;27.74;99719.02;103175;1254;96331;-71
2023/06/29 09:40:53;;;;;;;4.60;3.30;;;;;;;35.82;27.76;99716.92;103148;1254;102263;-70
2023/06/29 09:43:22;;;;;;;12.50;3.60;;;;;;;35.77;27.58;99712.15;102728;1258;137664;-71
2023/06/29 09:45:49;;;;;;;5.90;3.00;;;;;;;35.81;27.71;99712.42;103036;1258;96570;-72
2023/06/29 09:48:21;;;;;;;4.70;3.10;;;;;;;35.73;27.38;99708.38;103027;1255;138987;-69
2023/06/29 09:50:52;;;;;;;6.70;3.00;;;;;;;35.36;27.24;99710.08;103158;1258;96440;-73
2023/06/29 09:53:30;;;;;;;10.00;3.10;;;;;;;35.07;27.15;99711.52;103102;1255;101415;-73
2023/06/29 09:55:58;;;;;;;4.20;3.00;;;;;;;35.01;27.31;99710.55;103078;1261;137432;-67
2023/06/29 09:58:27;;;;;;;3.80;2.90;;;;;;;35.09;26.92;99709.10;103241;1254;96436;-72
2023/06/29 10:00:58;;;;;;;4.70;2.80;;;;;;;34.93;27.13;99713.91;103329;1255;137248;-73
2023/06/29 10:03:27;;;;;;;7.30;3.30;;;;;;;34.78;26.60;99711.02;103733;1253;94639;-73
2023/06/29 10:06:02;;;;;;;3.70;2.90;;;;;;;34.60;26.66;99714.77;103118;1255;137718;-72
2023/06/29 10:08:32;;;;;;;6.30;2.90;;;;;;;34.52;27.11;99709.71;103075;1255;99976;-73
2023/06/29 10:11:03;;;;;;;3.60;2.80;;;;;;;34.60;27.42;99704.23;103106;1254;96542;-73
2023/06/29 10:13:34;;;;;;;7.20;3.10;;;;;;;34.79;27.65;99705.77;102991;1260;137259;-73
2023/06/29 10:16:03;;;;;;;5.70;3.10;;;;;;;34.84;27.20;99702.88;103217;1254;96831;-73
2023/06/29 10:18:36;;;;;;;4.70;2.70;;;;;;;34.60;26.74;99707.95;103129;1259;137313;-73
2023/06/29 10:21:04;;;;;;;3.80;2.90;;;;;;;34.46;26.63;99709.48;103254;1254;100195;-72
2023/06/29 10:23:32;;;;;;;3.20;2.70;;;;;;;34.45;26.91;99706.86;103278;1260;96558;-72
2023/06/29 10:26:02;;;;;;;4.40;3.00;;;;;;;34.44;26.91;99706.52;103111;1260;137214;-72
2023/06/29 10:28:29;;;;;;;5.00;3.60;;;;;;;34.43;26.81;99705.99;103236;1256;96408;-73
2023/06/29 10:31:00;;;;;;;4.60;2.90;;;;;;;34.26;26.61;99704.77;103152;1255;137278;-73
2023/06/29 10:33:28;;;;;;;4.10;3.20;;;;;;;34.11;26.97;99699.69;103098;1259;98604;-73
2023/06/29 10:35:57;;;;;;;7.60;3.10;;;;;;;34.02;27.06;99704.81;103080;1253;137495;-73
2023/06/29 10:38:31;;;;;;;4.20;3.30;;;;;;;33.90;27.33;99697.02;103252;1259;98681;-73
2023/06/29 10:40:58;;;;;;;9.60;3.90;;;;;;;33.48;27.46;99704.48;103133;1259;96547;-73
2023/06/29 10:43:27;;;;;;;4.30;3.60;;;;;;;33.14;27.38;99705.73;103061;1256;137423;-73
2023/06/29 10:45:54;;;;;;;4.80;3.50;;;;;;;32.80;27.18;99702.13;103071;1254;100162;-73
2023/06/29 10:48:22;;;;;;;6.60;4.10;;;;;;;32.38;28.00;99701.38;103086;1260;137767;-72
2023/06/29 10:51:13;;;;;;;7.00;4.10;;;;;;;32.06;28.49;99699.61;103103;1255;100215;-72
2023/06/29 10:53:41;;;;;;;10.30;5.00;;;;;;;31.79;28.87;99704.40;103150;1255;96577;-73
2023/06/29 10:56:31;;;;;;;8.20;4.80;;;;;;;31.60;29.05;99698.83;103069;1260;137288;-72
2023/06/29 10:58:59;;;;;;;8.40;6.10;;;;;;;31.49;29.50;99692.91;103086;1260;99500;-73
2023/06/29 11:01:27;;;;;;;9.70;4.70;;;;;;;31.43;29.68;99688.20;103103;1254;138303;-72
2023/06/29 11:03:54;;;;;;;9.90;6.40;;;;;;;31.38;29.83;99682.96;103135;1255;108052;-72
2023/06/29 11:06:21;;;;;;;6.40;4.40;;;;;;;31.22;30.37;99684.11;103016;1260;139745;-72
2023/06/29 11:09:12;;;;;;;;;;;;;;;31.04;30.54;99685.64;103201;1260;109946;-71
2023/06/29 11:11:40;;;;;;;7.40;5.70;;;;;;;30.87;30.55;99687.98;103176;1255;107755;-73
2023/06/29 11:14:07;;;;;;;7.90;5.90;;;;;;;30.67;30.54;99675.41;103091;1260;137460;-72
2023/06/29 11:16:34;;;;;;;8.10;5.90;;;;;;;30.41;30.66;99678.23;103250;1254;107311;-73
2023/06/29 11:19:04;;;;;;;8.50;5.50;;;;;;;30.27;30.97;99675.84;103004;1260;137451;-73